Portada
METAR-TAF:

METAR-TAF

Aeroports :

Wallis, França

latitud: 13-14S, longitud: 176-10W, altitud: 23 m

Observació

L'informe es va fer fa 43 minuts, a les 17:30 UTC
Vent 2 kt amb direcció variable
Temperatura 24°C
Humitat 94%
Pressió 1012 hPa
Visibilitat 10 km o més

METAR: NLWW 201730Z AUTO VRB02KT 9999 NCD 24/23 Q1012 TEMPO 3000 SHRA BKN014 FEW020CB

Hora: 06:13 (18:13 UTC)

Pronòstic

L'informe es va fer fa 1 hora i 13 minuts, a les 17:00 UTC
Pronòstic vàlid del 20 a les 18 UTC al 21 a les 18 UTC
Vent 2 kt amb direcció variable
Visibilitat 10 km o més
Escasses núvols a una alçada de 1800 ft
Núvols disperses a una alçada de 4000 ft
Temporalment
l' 20 a les 18 UTC al 20 a les 24 UTC
Visibilitat: 3000 m
Cel ennuvolat a una alçada de 1400 ft
Escasses núvols a una alçada de 2000 ft, Cumulonimbus.
xàfecs de pluja

TAF: NLWW 201700Z 2018/2118 VRB02KT 9999 FEW018 SCT040 TEMPO 2018/2024 3000 SHRA BKN014 FEW020CB

Observacions i pronòstics meteorològics de més de 4000 aeroports (METAR i TAF).

Les estacions disponibles són els punts grocs i vermells al mapa.

Posi el ratolí al punt desitjat per veure el nom de l'estació.

Feu clic per veure les observacions i els pronòstics meteorològics.

Per canviar el mapa: feu clic els botons verds amb una creu de color negre per apropar; al botó verd amb un guió per allunyar la imatge; o en les fletxes verdes per a mapes adjacents.


METAR-TAF: